sensor_id;sensor_type;location;lat;lon;timestamp;pressure;altitude;pressure_sealevel;temperature;humidity
33075;BME280;19433;51.292;6.868;2022-09-28T00:01:16;98401.59;;;6.81;100.00
33075;BME280;19433;51.292;6.868;2022-09-28T00:03:42;98391.25;;;6.94;100.00
33075;BME280;19433;51.292;6.868;2022-09-28T00:06:10;98388.28;;;6.96;100.00
33075;BME280;19433;51.292;6.868;2022-09-28T00:08:36;98389.69;;;6.87;100.00
33075;BME280;19433;51.292;6.868;2022-09-28T00:11:04;98392.38;;;7.05;100.00
33075;BME280;19433;51.292;6.868;2022-09-28T00:13:29;98394.34;;;6.86;100.00
33075;BME280;19433;51.292;6.868;2022-09-28T00:15:58;98394.34;;;6.86;100.00
33075;BME280;19433;51.292;6.868;2022-09-28T00:18:24;98388.47;;;6.83;100.00
33075;BME280;19433;51.292;6.868;2022-09-28T00:23:26;98388.38;;;6.89;100.00
33075;BME280;19433;51.292;6.868;2022-09-28T00:25:51;98385.38;;;6.91;100.00
33075;BME280;19433;51.292;6.868;2022-09-28T00:28:17;98382.59;;;6.79;100.00
33075;BME280;19433;51.292;6.868;2022-09-28T00:30:42;98375.53;;;6.72;100.00
33075;BME280;19433;51.292;6.868;2022-09-28T00:33:07;98384.84;;;6.70;100.00
33075;BME280;19433;51.292;6.868;2022-09-28T00:35:32;98382.44;;;6.74;100.00
33075;BME280;19433;51.292;6.868;2022-09-28T00:37:58;98378.13;;;6.66;100.00
33075;BME280;19433;51.292;6.868;2022-09-28T00:40:24;98383.16;;;6.69;100.00
33075;BME280;19433;51.292;6.868;2022-09-28T00:42:49;98372.47;;;6.61;100.00
33075;BME280;19433;51.292;6.868;2022-09-28T00:45:14;98372.88;;;6.65;100.00
33075;BME280;19433;51.292;6.868;2022-09-28T00:47:56;98374.22;;;6.74;100.00
33075;BME280;19433;51.292;6.868;2022-09-28T00:50:29;98374.22;;;6.74;100.00
33075;BME280;19433;51.292;6.868;2022-09-28T00:53:13;98371.13;;;6.70;100.00
33075;BME280;19433;51.292;6.868;2022-09-28T00:55:45;98366.22;;;6.72;100.00
33075;BME280;19433;51.292;6.868;2022-09-28T00:58:16;98370.63;;;6.74;100.00
33075;BME280;19433;51.292;6.868;2022-09-28T01:00:42;98362.72;;;6.65;100.00
33075;BME280;19433;51.292;6.868;2022-09-28T01:03:08;98359.22;;;6.58;100.00
33075;BME280;19433;51.292;6.868;2022-09-28T01:05:34;98369.50;;;6.63;100.00
33075;BME280;19433;51.292;6.868;2022-09-28T01:08:00;98360.44;;;6.62;100.00
33075;BME280;19433;51.292;6.868;2022-09-28T01:10:27;98363.78;;;6.64;100.00
33075;BME280;19433;51.292;6.868;2022-09-28T01:12:53;98363.78;;;6.64;100.00
33075;BME280;19433;51.292;6.868;2022-09-28T01:15:21;98368.06;;;6.60;100.00
33075;BME280;19433;51.292;6.868;2022-09-28T01:18:13;98365.19;;;6.55;100.00
33075;BME280;19433;51.292;6.868;2022-09-28T01:20:54;98361.28;;;6.45;100.00
33075;BME280;19433;51.292;6.868;2022-09-28T01:23:36;98368.34;;;6.41;100.00
33075;BME280;19433;51.292;6.868;2022-09-28T01:32:35;98367.94;;;6.37;100.00
33075;BME280;19433;51.292;6.868;2022-09-28T01:35:15;98363.97;;;6.33;100.00
33075;BME280;19433;51.292;6.868;2022-09-28T01:37:46;98372.19;;;6.33;100.00
33075;BME280;19433;51.292;6.868;2022-09-28T01:40:17;98363.75;;;6.34;100.00
33075;BME280;19433;51.292;6.868;2022-09-28T01:42:44;98366.50;;;6.34;100.00
33075;BME280;19433;51.292;6.868;2022-09-28T01:45:19;98367.94;;;6.37;100.00
33075;BME280;19433;51.292;6.868;2022-09-28T01:47:47;98362.47;;;6.37;100.00
33075;BME280;19433;51.292;6.868;2022-09-28T01:50:17;98370.91;;;6.35;100.00
33075;BME280;19433;51.292;6.868;2022-09-28T01:52:58;98355.97;;;6.31;100.00
33075;BME280;19433;51.292;6.868;2022-09-28T01:55:49;98351.56;;;6.30;100.00
33075;BME280;19433;51.292;6.868;2022-09-28T02:01:55;98354.75;;;6.27;100.00
33075;BME280;19433;51.292;6.868;2022-09-28T02:11:15;98350.72;;;6.30;100.00
33075;BME280;19433;51.292;6.868;2022-09-28T02:13:47;98340.81;;;6.29;100.00
33075;BME280;19433;51.292;6.868;2022-09-28T02:19:09;98349.88;;;6.29;100.00
33075;BME280;19433;51.292;6.868;2022-09-28T02:21:41;98354.00;;;6.39;100.00
33075;BME280;19433;51.292;6.868;2022-09-28T02:24:15;98351.88;;;6.41;100.00
33075;BME280;19433;51.292;6.868;2022-09-28T02:26:44;98355.69;;;6.40;100.00
33075;BME280;19433;51.292;6.868;2022-09-28T02:29:11;98347.81;;;6.43;100.00
33075;BME280;19433;51.292;6.868;2022-09-28T02:31:37;98348.81;;;6.49;100.00
33075;BME280;19433;51.292;6.868;2022-09-28T02:34:02;98357.72;;;6.44;100.00
33075;BME280;19433;51.292;6.868;2022-09-28T02:36:28;98354.34;;;6.42;100.00
33075;BME280;19433;51.292;6.868;2022-09-28T02:38:55;98359.25;;;6.40;100.00
33075;BME280;19433;51.292;6.868;2022-09-28T02:51:52;98352.78;;;6.34;100.00
33075;BME280;19433;51.292;6.868;2022-09-28T03:00:05;98365.50;;;6.29;100.00
33075;BME280;19433;51.292;6.868;2022-09-28T03:05:40;98355.97;;;6.31;100.00
33075;BME280;19433;51.292;6.868;2022-09-28T03:08:13;98360.63;;;6.31;100.00
33075;BME280;19433;51.292;6.868;2022-09-28T03:10:55;98355.34;;;6.29;100.00
33075;BME280;19433;51.292;6.868;2022-09-28T03:13:23;98356.59;;;6.33;100.00
33075;BME280;19433;51.292;6.868;2022-09-28T03:15:49;98354.69;;;6.34;100.00
33075;BME280;19433;51.292;6.868;2022-09-28T03:18:15;98354.22;;;6.55;100.00
33075;BME280;19433;51.292;6.868;2022-09-28T03:20:41;98359.22;;;6.58;100.00
33075;BME280;19433;51.292;6.868;2022-09-28T03:23:06;98366.53;;;6.64;100.00
33075;BME280;19433;51.292;6.868;2022-09-28T03:25:32;98362.97;;;6.64;100.00
33075;BME280;19433;51.292;6.868;2022-09-28T03:27:57;98361.50;;;6.61;100.00
33075;BME280;19433;51.292;6.868;2022-09-28T03:30:22;98364.56;;;6.72;100.00
33075;BME280;19433;51.292;6.868;2022-09-28T03:32:55;98368.72;;;6.74;100.00
33075;BME280;19433;51.292;6.868;2022-09-28T03:35:21;98372.19;;;6.69;100.00
33075;BME280;19433;51.292;6.868;2022-09-28T03:37:46;98376.28;;;6.79;100.00
33075;BME280;19433;51.292;6.868;2022-09-28T03:40:11;98370.78;;;6.79;100.00
33075;BME280;19433;51.292;6.868;2022-09-28T03:42:37;98373.06;;;6.82;100.00
33075;BME280;19433;51.292;6.868;2022-09-28T03:45:02;98363.56;;;6.66;100.00
33075;BME280;19433;51.292;6.868;2022-09-28T03:47:27;98369.22;;;6.53;100.00
33075;BME280;19433;51.292;6.868;2022-09-28T03:49:53;98374.16;;;6.44;100.00
33075;BME280;19433;51.292;6.868;2022-09-28T03:52:18;98368.78;;;6.38;100.00
33075;BME280;19433;51.292;6.868;2022-09-28T03:54:43;98365.03;;;6.32;100.00
33075;BME280;19433;51.292;6.868;2022-09-28T03:57:08;98361.84;;;6.35;100.00
33075;BME280;19433;51.292;6.868;2022-09-28T03:59:34;98369.84;;;6.37;100.00
33075;BME280;19433;51.292;6.868;2022-09-28T04:02:02;98368.78;;;6.38;100.00
33075;BME280;19433;51.292;6.868;2022-09-28T04:04:27;98370.69;;;6.37;100.00
33075;BME280;19433;51.292;6.868;2022-09-28T04:06:52;98370.13;;;6.47;100.00
33075;BME280;19433;51.292;6.868;2022-09-28T04:09:17;98366.56;;;6.46;100.00
33075;BME280;19433;51.292;6.868;2022-09-28T04:11:43;98363.28;;;6.56;100.00
33075;BME280;19433;51.292;6.868;2022-09-28T04:14:08;98366.53;;;6.64;100.00
33075;BME280;19433;51.292;6.868;2022-09-28T04:16:35;98365.63;;;6.70;100.00
33075;BME280;19433;51.292;6.868;2022-09-28T04:19:01;98372.91;;;6.77;100.00
33075;BME280;19433;51.292;6.868;2022-09-28T04:24:49;98363.47;;;6.72;100.00
33075;BME280;19433;51.292;6.868;2022-09-28T04:27:14;98363.28;;;6.56;100.00
33075;BME280;19433;51.292;6.868;2022-09-28T04:29:58;98366.78;;;6.63;100.00
33075;BME280;19433;51.292;6.868;2022-09-28T04:32:23;98364.91;;;6.75;100.00
33075;BME280;19433;51.292;6.868;2022-09-28T04:34:48;98371.91;;;6.89;100.00
33075;BME280;19433;51.292;6.868;2022-09-28T04:37:15;98375.44;;;6.78;100.00
33075;BME280;19433;51.292;6.868;2022-09-28T04:39:40;98370.47;;;6.87;100.00
33075;BME280;19433;51.292;6.868;2022-09-28T04:42:08;98371.91;;;6.89;100.00
33075;BME280;19433;51.292;6.868;2022-09-28T04:44:35;98373.91;;;6.82;100.00
33075;BME280;19433;51.292;6.868;2022-09-28T04:47:00;98368.72;;;6.74;100.00
33075;BME280;19433;51.292;6.868;2022-09-28T04:49:25;98366.59;;;6.76;100.00
33075;BME280;19433;51.292;6.868;2022-09-28T04:51:50;98366.69;;;6.69;100.00
33075;BME280;19433;51.292;6.868;2022-09-28T04:54:16;98371.16;;;6.82;100.00
33075;BME280;19433;51.292;6.868;2022-09-28T04:56:41;98365.41;;;6.72;100.00
33075;BME280;19433;51.292;6.868;2022-09-28T04:59:06;98374.44;;;6.72;100.00
33075;BME280;19433;51.292;6.868;2022-09-28T05:01:31;98373.38;;;6.74;100.00
33075;BME280;19433;51.292;6.868;2022-09-28T05:03:57;98364.41;;;6.66;100.00
33075;BME280;19433;51.292;6.868;2022-09-28T05:06:32;98365.41;;;6.72;100.00
33075;BME280;19433;51.292;6.868;2022-09-28T05:08:57;98369.22;;;6.71;100.00
33075;BME280;19433;51.292;6.868;2022-09-28T05:11:23;98373.91;;;6.82;100.00
33075;BME280;19433;51.292;6.868;2022-09-28T05:13:48;98356.97;;;6.85;100.00
33075;BME280;19433;51.292;6.868;2022-09-28T05:16:14;98363.47;;;6.72;100.00
33075;BME280;19433;51.292;6.868;2022-09-28T05:22:04;98373.69;;;6.65;100.00
33075;BME280;19433;51.292;6.868;2022-09-28T05:24:32;98377.34;;;6.78;100.00
33075;BME280;19433;51.292;6.868;2022-09-28T05:26:57;98374.13;;;6.81;100.00
33075;BME280;19433;51.292;6.868;2022-09-28T05:29:23;98372.78;;;6.72;100.00
33075;BME280;19433;51.292;6.868;2022-09-28T05:31:48;98374.53;;;6.84;100.00
33075;BME280;19433;51.292;6.868;2022-09-28T05:34:13;98370.47;;;6.87;100.00
33075;BME280;19433;51.292;6.868;2022-09-28T05:36:39;98373.44;;;6.85;100.00
33075;BME280;19433;51.292;6.868;2022-09-28T05:39:06;98368.63;;;6.99;100.00
33075;BME280;19433;51.292;6.868;2022-09-28T05:41:31;98368.63;;;6.99;100.00
33075;BME280;19433;51.292;6.868;2022-09-28T05:43:58;98373.06;;;6.82;100.00
33075;BME280;19433;51.292;6.868;2022-09-28T05:46:23;98368.94;;;6.72;100.00
33075;BME280;19433;51.292;6.868;2022-09-28T05:48:49;98369.06;;;6.66;100.00
33075;BME280;19433;51.292;6.868;2022-09-28T05:51:16;98371.88;;;6.59;100.00
33075;BME280;19433;51.292;6.868;2022-09-28T05:53:41;98371.88;;;6.59;100.00
33075;BME280;19433;51.292;6.868;2022-09-28T05:56:07;98384.53;;;6.60;100.00
33075;BME280;19433;51.292;6.868;2022-09-28T05:58:32;98387.25;;;6.60;100.00
33075;BME280;19433;51.292;6.868;2022-09-28T06:00:57;98383.00;;;6.64;100.00
33075;BME280;19433;51.292;6.868;2022-09-28T06:03:23;98388.72;;;6.63;100.00
33075;BME280;19433;51.292;6.868;2022-09-28T06:05:48;98387.81;;;6.69;100.00
33075;BME280;19433;51.292;6.868;2022-09-28T06:08:14;98383.84;;;6.65;100.00
33075;BME280;19433;51.292;6.868;2022-09-28T06:10:39;98391.22;;;6.64;100.00
33075;BME280;19433;51.292;6.868;2022-09-28T06:13:06;98387.50;;;6.59;100.00
33075;BME280;19433;51.292;6.868;2022-09-28T06:15:34;98396.34;;;6.61;100.00
33075;BME280;19433;51.292;6.868;2022-09-28T06:18:05;98391.84;;;6.66;100.00
33075;BME280;19433;51.292;6.868;2022-09-28T06:20:36;98392.34;;;6.75;100.00
33075;BME280;19433;51.292;6.868;2022-09-28T06:23:03;98397.34;;;6.66;100.00
33075;BME280;19433;51.292;6.868;2022-09-28T06:25:28;98401.97;;;6.66;100.00
33075;BME280;19433;51.292;6.868;2022-09-28T06:28:02;98405.72;;;6.72;100.00
33075;BME280;19433;51.292;6.868;2022-09-28T06:30:29;98407.69;;;6.64;100.00
33075;BME280;19433;51.292;6.868;2022-09-28T06:32:57;98409.81;;;6.62;100.00
33075;BME280;19433;51.292;6.868;2022-09-28T06:35:24;98420.63;;;6.76;100.00
33075;BME280;19433;51.292;6.868;2022-09-28T06:37:51;98419.34;;;6.78;100.00
33075;BME280;19433;51.292;6.868;2022-09-28T06:40:17;98420.47;;;6.89;100.00
33075;BME280;19433;51.292;6.868;2022-09-28T06:42:43;98429.91;;;7.11;100.00
33075;BME280;19433;51.292;6.868;2022-09-28T06:45:09;98420.31;;;7.02;100.00
33075;BME280;19433;51.292;6.868;2022-09-28T06:47:35;98425.09;;;7.06;100.00
33075;BME280;19433;51.292;6.868;2022-09-28T06:50:02;98428.06;;;7.05;100.00
33075;BME280;19433;51.292;6.868;2022-09-28T06:52:28;98427.22;;;7.04;100.00
33075;BME280;19433;51.292;6.868;2022-09-28T06:54:53;98434.03;;;7.02;100.00
33075;BME280;19433;51.292;6.868;2022-09-28T06:57:18;98427.00;;;7.06;100.00
33075;BME280;19433;51.292;6.868;2022-09-28T06:59:43;98437.66;;;7.14;100.00
33075;BME280;19433;51.292;6.868;2022-09-28T07:02:10;98430.06;;;6.98;100.00
33075;BME280;19433;51.292;6.868;2022-09-28T07:04:39;98445.94;;;6.96;100.00
33075;BME280;19433;51.292;6.868;2022-09-28T07:07:07;98449.56;;;7.08;100.00
33075;BME280;19433;51.292;6.868;2022-09-28T07:09:33;98448.28;;;6.92;100.00
33075;BME280;19433;51.292;6.868;2022-09-28T07:11:58;98449.25;;;6.86;100.00
33075;BME280;19433;51.292;6.868;2022-09-28T07:14:24;98456.41;;;6.87;100.00
33075;BME280;19433;51.292;6.868;2022-09-28T07:16:49;98455.47;;;6.93;100.00
33075;BME280;19433;51.292;6.868;2022-09-28T07:19:15;98461.34;;;6.97;100.00
33075;BME280;19433;51.292;6.868;2022-09-28T07:21:40;98464.53;;;6.94;100.00
33075;BME280;19433;51.292;6.868;2022-09-28T07:24:05;98464.03;;;6.85;100.00
33075;BME280;19433;51.292;6.868;2022-09-28T07:26:31;98459.22;;;6.81;100.00
33075;BME280;19433;51.292;6.868;2022-09-28T07:28:57;98461.97;;;6.81;100.00
33075;BME280;19433;51.292;6.868;2022-09-28T07:31:22;98461.06;;;6.87;100.00
33075;BME280;19433;51.292;6.868;2022-09-28T07:33:49;98468.66;;;6.85;100.00
33075;BME280;19433;51.292;6.868;2022-09-28T07:36:15;98466.00;;;6.78;100.00
33075;BME280;19433;51.292;6.868;2022-09-28T07:38:41;98468.56;;;6.91;100.00
33075;BME280;19433;51.292;6.868;2022-09-28T07:41:20;98479.03;;;7.01;100.00
33075;BME280;19433;51.292;6.868;2022-09-28T07:43:56;98469.31;;;7.17;100.00
33075;BME280;19433;51.292;6.868;2022-09-28T07:46:23;98484.25;;;7.21;100.00
33075;BME280;19433;51.292;6.868;2022-09-28T07:48:48;98487.16;;;7.56;100.00
33075;BME280;19433;51.292;6.868;2022-09-28T07:51:15;98482.53;;;7.80;100.00
33075;BME280;19433;51.292;6.868;2022-09-28T07:53:43;98482.13;;;7.94;100.00
33075;BME280;19433;51.292;6.868;2022-09-28T07:56:08;98485.75;;;8.18;100.00
33075;BME280;19433;51.292;6.868;2022-09-28T07:58:35;98488.78;;;8.40;100.00
33075;BME280;19433;51.292;6.868;2022-09-28T08:01:07;98491.88;;;8.32;100.00
33075;BME280;19433;51.292;6.868;2022-09-28T08:03:34;98499.66;;;8.70;100.00
33075;BME280;19433;51.292;6.868;2022-09-28T08:06:02;98503.28;;;9.50;100.00
33075;BME280;19433;51.292;6.868;2022-09-28T08:08:28;98511.34;;;9.97;100.00
33075;BME280;19433;51.292;6.868;2022-09-28T08:10:56;98514.50;;;9.89;100.00
33075;BME280;19433;51.292;6.868;2022-09-28T08:13:21;98514.03;;;9.92;100.00
33075;BME280;19433;51.292;6.868;2022-09-28T08:15:49;98513.44;;;9.90;100.00
33075;BME280;19433;51.292;6.868;2022-09-28T08:18:16;98520.19;;;9.99;100.00
33075;BME280;19433;51.292;6.868;2022-09-28T08:20:41;98522.69;;;9.84;100.00
33075;BME280;19433;51.292;6.868;2022-09-28T08:23:25;98518.31;;;9.43;100.00
33075;BME280;19433;51.292;6.868;2022-09-28T08:25:51;98520.19;;;9.02;100.00
33075;BME280;19433;51.292;6.868;2022-09-28T08:28:18;98520.78;;;9.16;100.00
33075;BME280;19433;51.292;6.868;2022-09-28T08:30:44;98528.78;;;9.17;100.00
33075;BME280;19433;51.292;6.868;2022-09-28T08:33:11;98525.03;;;9.64;100.00
33075;BME280;19433;51.292;6.868;2022-09-28T08:35:37;98527.50;;;9.48;100.00
33075;BME280;19433;51.292;6.868;2022-09-28T08:38:05;98535.28;;;9.80;100.00
33075;BME280;19433;51.292;6.868;2022-09-28T08:40:33;98541.31;;;9.94;100.00
33075;BME280;19433;51.292;6.868;2022-09-28T08:43:04;98538.84;;;10.20;100.00
33075;BME280;19433;51.292;6.868;2022-09-28T08:45:31;98542.53;;;9.69;100.00
33075;BME280;19433;51.292;6.868;2022-09-28T08:48:11;98541.88;;;9.79;100.00
33075;BME280;19433;51.292;6.868;2022-09-28T08:51:04;98548.81;;;9.53;100.00
33075;BME280;19433;51.292;6.868;2022-09-28T08:53:39;98543.84;;;9.95;100.00
33075;BME280;19433;51.292;6.868;2022-09-28T08:56:11;98548.03;;;10.26;100.00
33075;BME280;19433;51.292;6.868;2022-09-28T08:58:40;98553.56;;;10.76;100.00
33075;BME280;19433;51.292;6.868;2022-09-28T09:01:09;98558.16;;;11.26;100.00
33075;BME280;19433;51.292;6.868;2022-09-28T09:03:41;98563.19;;;11.73;100.00
33075;BME280;19433;51.292;6.868;2022-09-28T09:06:28;98554.13;;;11.17;99.02
33075;BME280;19433;51.292;6.868;2022-09-28T09:12:21;98554.38;;;10.27;100.00
33075;BME280;19433;51.292;6.868;2022-09-28T09:15:17;98553.38;;;9.87;100.00
33075;BME280;19433;51.292;6.868;2022-09-28T09:20:54;98569.88;;;9.71;100.00
33075;BME280;19433;51.292;6.868;2022-09-28T09:26:10;98567.09;;;9.42;100.00
33075;BME280;19433;51.292;6.868;2022-09-28T09:34:28;98567.28;;;9.52;100.00
33075;BME280;19433;51.292;6.868;2022-09-28T09:42:25;98577.50;;;10.54;100.00
33075;BME280;19433;51.292;6.868;2022-09-28T09:48:02;98585.69;;;10.66;100.00
33075;BME280;19433;51.292;6.868;2022-09-28T09:50:36;98588.09;;;10.96;100.00
33075;BME280;19433;51.292;6.868;2022-09-28T09:59:19;98589.22;;;10.78;100.00
33075;BME280;19433;51.292;6.868;2022-09-28T10:01:49;98592.22;;;10.60;100.00
33075;BME280;19433;51.292;6.868;2022-09-28T10:04:20;98591.28;;;10.37;100.00
33075;BME280;19433;51.292;6.868;2022-09-28T10:06:51;98593.97;;;10.32;100.00
33075;BME280;19433;51.292;6.868;2022-09-28T10:09:29;98590.53;;;10.42;100.00
33075;BME280;19433;51.292;6.868;2022-09-28T10:11:56;98589.31;;;10.66;100.00
33075;BME280;19433;51.292;6.868;2022-09-28T10:14:23;98588.22;;;10.67;100.00
33075;BME280;19433;51.292;6.868;2022-09-28T10:16:54;98595.47;;;10.90;100.00
33075;BME280;19433;51.292;6.868;2022-09-28T10:19:31;98593.31;;;10.75;100.00
33075;BME280;19433;51.292;6.868;2022-09-28T10:22:03;98592.91;;;10.83;100.00
33075;BME280;19433;51.292;6.868;2022-09-28T10:27:03;98586.72;;;11.53;96.55
33075;BME280;19433;51.292;6.868;2022-09-28T10:29:38;98599.22;;;11.78;97.82
33075;BME280;19433;51.292;6.868;2022-09-28T10:32:17;98597.03;;;11.80;96.62
33075;BME280;19433;51.292;6.868;2022-09-28T10:34:43;98597.09;;;11.85;94.70
33075;BME280;19433;51.292;6.868;2022-09-28T10:37:10;98598.09;;;11.57;94.98
33075;BME280;19433;51.292;6.868;2022-09-28T10:39:39;98590.97;;;11.83;95.48
33075;BME280;19433;51.292;6.868;2022-09-28T10:42:10;98593.97;;;12.57;94.64
33075;BME280;19433;51.292;6.868;2022-09-28T10:47:23;98612.78;;;15.60;78.69
33075;BME280;19433;51.292;6.868;2022-09-28T10:49:49;98611.94;;;16.34;71.15
33075;BME280;19433;51.292;6.868;2022-09-28T10:52:37;98609.69;;;17.43;69.56
33075;BME280;19433;51.292;6.868;2022-09-28T10:55:25;98619.56;;;19.25;60.85
33075;BME280;19433;51.292;6.868;2022-09-28T10:57:51;98614.03;;;17.83;62.87
33075;BME280;19433;51.292;6.868;2022-09-28T11:00:59;98607.50;;;15.59;71.52
33075;BME280;19433;51.292;6.868;2022-09-28T11:03:27;98609.97;;;14.28;76.23
33075;BME280;19433;51.292;6.868;2022-09-28T11:05:56;98600.22;;;12.74;81.66
33075;BME280;19433;51.292;6.868;2022-09-28T11:08:26;98598.25;;;11.89;85.75
33075;BME280;19433;51.292;6.868;2022-09-28T11:11:03;98596.28;;;11.46;89.99
33075;BME280;19433;51.292;6.868;2022-09-28T11:13:29;98593.03;;;10.93;92.32
33075;BME280;19433;51.292;6.868;2022-09-28T11:15:55;98594.56;;;10.68;96.79
33075;BME280;19433;51.292;6.868;2022-09-28T11:18:29;98586.63;;;10.38;99.56
33075;BME280;19433;51.292;6.868;2022-09-28T11:21:26;98595.03;;;10.31;100.00
33075;BME280;19433;51.292;6.868;2022-09-28T11:24:03;98594.56;;;10.51;100.00
33075;BME280;19433;51.292;6.868;2022-09-28T11:26:40;98587.88;;;10.80;100.00
33075;BME280;19433;51.292;6.868;2022-09-28T11:29:18;98587.06;;;11.18;98.26
33075;BME280;19433;51.292;6.868;2022-09-28T11:31:45;98597.47;;;11.93;97.89
33075;BME280;19433;51.292;6.868;2022-09-28T11:34:23;98592.09;;;12.62;95.45
33075;BME280;19433;51.292;6.868;2022-09-28T11:42:26;98592.38;;;13.35;82.44
33075;BME280;19433;51.292;6.868;2022-09-28T11:45:50;98599.69;;;13.51;84.30
33075;BME280;19433;51.292;6.868;2022-09-28T11:48:00;98595.84;;;13.62;86.84
33075;BME280;19433;51.292;6.868;2022-09-28T11:50:40;98592.56;;;13.70;84.93
33075;BME280;19433;51.292;6.868;2022-09-28T11:55:53;98597.28;;;13.75;83.41
33075;BME280;19433;51.292;6.868;2022-09-28T11:58:30;98596.91;;;13.51;84.64
33075;BME280;19433;51.292;6.868;2022-09-28T12:03:59;98599.78;;;12.02;89.17
33075;BME280;19433;51.292;6.868;2022-09-28T12:06:34;98594.69;;;11.93;89.53
33075;BME280;19433;51.292;6.868;2022-09-28T12:09:20;98594.78;;;12.25;90.70
33075;BME280;19433;51.292;6.868;2022-09-28T12:11:51;98598.03;;;12.17;89.57
33075;BME280;19433;51.292;6.868;2022-09-28T12:14:27;98599.81;;;12.92;86.87
33075;BME280;19433;51.292;6.868;2022-09-28T12:17:19;98599.28;;;13.85;82.16
33075;BME280;19433;51.292;6.868;2022-09-28T12:19:54;98594.06;;;13.98;84.67
33075;BME280;19433;51.292;6.868;2022-09-28T12:22:43;98595.44;;;14.06;80.75
33075;BME280;19433;51.292;6.868;2022-09-28T12:25:16;98593.41;;;13.76;81.84
33075;BME280;19433;51.292;6.868;2022-09-28T12:27:55;98586.94;;;13.55;85.28
33075;BME280;19433;51.292;6.868;2022-09-28T12:30:23;98584.94;;;13.46;84.18
33075;BME280;19433;51.292;6.868;2022-09-28T12:32:55;98591.00;;;13.37;84.74
33075;BME280;19433;51.292;6.868;2022-09-28T12:49:23;98584.81;;;11.76;97.51
33075;BME280;19433;51.292;6.868;2022-09-28T12:51:53;98583.03;;;11.48;93.66
33075;BME280;19433;51.292;6.868;2022-09-28T13:14:17;98600.91;;;20.08;55.67
33075;BME280;19433;51.292;6.868;2022-09-28T13:17:12;98601.13;;;21.33;51.70
33075;BME280;19433;51.292;6.868;2022-09-28T13:22:53;98602.53;;;21.75;48.07
33075;BME280;19433;51.292;6.868;2022-09-28T13:25:26;98595.22;;;20.40;48.54
33075;BME280;19433;51.292;6.868;2022-09-28T13:28:00;98590.63;;;18.97;52.18
33075;BME280;19433;51.292;6.868;2022-09-28T13:30:27;98590.59;;;19.16;53.17
33075;BME280;19433;51.292;6.868;2022-09-28T13:33:00;98577.69;;;20.93;53.17
33075;BME280;19433;51.292;6.868;2022-09-28T13:35:26;98581.34;;;21.69;47.73
33075;BME280;19433;51.292;6.868;2022-09-28T13:46:56;98580.09;;;21.84;46.81
33075;BME280;19433;51.292;6.868;2022-09-28T13:49:50;98578.59;;;21.24;48.09
33075;BME280;19433;51.292;6.868;2022-09-28T14:00:44;98581.28;;;18.50;52.05
33075;BME280;19433;51.292;6.868;2022-09-28T14:03:23;98574.84;;;17.88;55.89
33075;BME280;19433;51.292;6.868;2022-09-28T14:14:05;98577.53;;;14.69;64.56
33075;BME280;19433;51.292;6.868;2022-09-28T14:16:51;98579.22;;;14.96;66.34
33075;BME280;19433;51.292;6.868;2022-09-28T14:19:30;98586.38;;;15.37;66.02
33075;BME280;19433;51.292;6.868;2022-09-28T14:22:08;98576.63;;;15.45;64.38
33075;BME280;19433;51.292;6.868;2022-09-28T14:25:02;98571.34;;;16.18;64.66
33075;BME280;19433;51.292;6.868;2022-09-28T14:32:46;98586.09;;;17.31;65.56
33075;BME280;19433;51.292;6.868;2022-09-28T14:35:18;98580.69;;;16.81;72.51
33075;BME280;19433;51.292;6.868;2022-09-28T14:37:48;98579.69;;;17.01;71.89
33075;BME280;19433;51.292;6.868;2022-09-28T14:48:57;98589.00;;;17.73;57.71
33075;BME280;19433;51.292;6.868;2022-09-28T14:54:02;98592.13;;;16.36;58.53
33075;BME280;19433;51.292;6.868;2022-09-28T14:56:32;98592.22;;;15.56;60.72
33075;BME280;19433;51.292;6.868;2022-09-28T14:58:59;98605.28;;;15.66;63.73
33075;BME280;19433;51.292;6.868;2022-09-28T15:01:24;98609.72;;;15.67;64.17
33075;BME280;19433;51.292;6.868;2022-09-28T15:03:53;98616.75;;;15.19;71.80
33075;BME280;19433;51.292;6.868;2022-09-28T15:06:23;98609.81;;;14.75;79.21
33075;BME280;19433;51.292;6.868;2022-09-28T15:08:49;98615.97;;;13.90;85.02
33075;BME280;19433;51.292;6.868;2022-09-28T15:11:18;98621.22;;;13.34;91.00
33075;BME280;19433;51.292;6.868;2022-09-28T15:13:44;98626.69;;;12.92;97.89
33075;BME280;19433;51.292;6.868;2022-09-28T15:16:12;98631.44;;;12.38;97.99
33075;BME280;19433;51.292;6.868;2022-09-28T15:21:36;98638.09;;;11.49;100.00
33075;BME280;19433;51.292;6.868;2022-09-28T15:24:26;98636.66;;;11.08;100.00
33075;BME280;19433;51.292;6.868;2022-09-28T15:26:52;98636.31;;;10.88;100.00
33075;BME280;19433;51.292;6.868;2022-09-28T15:29:18;98632.72;;;10.71;100.00
33075;BME280;19433;51.292;6.868;2022-09-28T15:31:44;98629.28;;;10.47;100.00
33075;BME280;19433;51.292;6.868;2022-09-28T15:37:10;98634.44;;;10.15;100.00
33075;BME280;19433;51.292;6.868;2022-09-28T15:39:36;98626.28;;;9.92;100.00
33075;BME280;19433;51.292;6.868;2022-09-28T15:42:01;98634.44;;;9.86;100.00
33075;BME280;19433;51.292;6.868;2022-09-28T15:44:34;98633.13;;;9.89;100.00
33075;BME280;19433;51.292;6.868;2022-09-28T15:47:13;98628.13;;;9.74;100.00
33075;BME280;19433;51.292;6.868;2022-09-28T15:49:55;98636.31;;;9.58;100.00
33075;BME280;19433;51.292;6.868;2022-09-28T15:54:53;98651.69;;;9.18;100.00
33075;BME280;19433;51.292;6.868;2022-09-28T15:57:38;98649.44;;;9.15;100.00
33075;BME280;19433;51.292;6.868;2022-09-28T16:00:28;98660.94;;;9.01;100.00
33075;BME280;19433;51.292;6.868;2022-09-28T16:08:14;98656.34;;;8.95;100.00
33075;BME280;19433;51.292;6.868;2022-09-28T16:13:58;98662.16;;;8.22;100.00
33075;BME280;19433;51.292;6.868;2022-09-28T16:16:35;98673.09;;;8.10;100.00
33075;BME280;19433;51.292;6.868;2022-09-28T16:19:03;98679.72;;;7.91;100.00
33075;BME280;19433;51.292;6.868;2022-09-28T16:21:44;98684.69;;;7.64;100.00
33075;BME280;19433;51.292;6.868;2022-09-28T16:24:19;98696.06;;;7.67;100.00
33075;BME280;19433;51.292;6.868;2022-09-28T16:26:47;98691.16;;;7.69;100.00